createdAt,value
2022-08-18T00:02:37.017Z,16.3
2022-08-18T00:08:30.945Z,15.8
2022-08-18T00:14:29.353Z,16.6
2022-08-18T00:20:20.463Z,16.4
2022-08-18T00:26:14.095Z,18.5
2022-08-18T00:32:06.306Z,17.4
2022-08-18T00:37:59.103Z,18.4
2022-08-18T00:43:50.658Z,27.9
2022-08-18T00:49:42.256Z,23.3
2022-08-18T00:55:34.117Z,22.3
2022-08-18T01:01:26.546Z,19.9
2022-08-18T01:07:18.235Z,20.1
2022-08-18T01:13:10.933Z,21.1
2022-08-18T01:19:03.404Z,21
2022-08-18T01:24:56.482Z,21.3
2022-08-18T01:30:47.476Z,22.4
2022-08-18T01:36:39.956Z,25.5
2022-08-18T01:42:32.229Z,20.6
2022-08-18T01:48:25.957Z,18.1
2022-08-18T01:54:18.513Z,19.1
2022-08-18T02:00:15.740Z,20.9
2022-08-18T02:06:11.271Z,22.8
2022-08-18T02:12:05.195Z,26.5
2022-08-18T02:17:58.908Z,25.7
2022-08-18T02:23:59.505Z,23.6
2022-08-18T02:29:51.464Z,23.1
2022-08-18T02:35:42.372Z,24.6
2022-08-18T02:41:34.585Z,24.6
2022-08-18T02:47:29.145Z,24.6
2022-08-18T02:53:24.111Z,23.2
2022-08-18T02:59:15.877Z,23.4
2022-08-18T03:05:14.543Z,26.7
2022-08-18T03:11:05.363Z,29.6
2022-08-18T03:16:59.297Z,24.5
2022-08-18T03:22:50.284Z,26.6
2022-08-18T03:28:41.303Z,27.2
2022-08-18T03:34:29.649Z,25.1
2022-08-18T03:40:21.762Z,25.7
2022-08-18T03:46:11.101Z,28
2022-08-18T03:52:03.158Z,31.8
2022-08-18T03:57:56.480Z,32.5
2022-08-18T04:03:47.909Z,33.2
2022-08-18T04:09:42.524Z,33.8
2022-08-18T04:15:33.241Z,33.3
2022-08-18T04:21:25.084Z,31
2022-08-18T04:27:17.579Z,30.4
2022-08-18T04:33:11.475Z,34.3
2022-08-18T04:39:04.127Z,33.8
2022-08-18T04:44:55.646Z,31.6
2022-08-18T04:50:47.313Z,30.9
2022-08-18T04:56:38.671Z,34.4
2022-08-18T05:02:30.222Z,32.8
2022-08-18T05:08:21.577Z,34.7
2022-08-18T05:14:10.258Z,38
2022-08-18T05:20:03.825Z,46.1
2022-08-18T05:25:57.904Z,47.9
2022-08-18T05:31:50.353Z,55.4
2022-08-18T05:37:41.694Z,45.3
2022-08-18T05:43:35.140Z,49.5
2022-08-18T05:49:35.083Z,49.1
2022-08-18T05:55:25.758Z,44.3
2022-08-18T06:01:16.774Z,54.2
2022-08-18T06:07:06.929Z,62.6
2022-08-18T06:12:57.893Z,50.8
2022-08-18T06:18:49.383Z,55.4
2022-08-18T06:24:39.565Z,55.9
2022-08-18T06:30:30.121Z,99.6
2022-08-18T06:36:24.749Z,109
2022-08-18T06:42:18.667Z,111.2
2022-08-18T06:48:20.247Z,109.1
2022-08-18T06:54:09.018Z,105.5
2022-08-18T07:00:00.640Z,103.9
2022-08-18T07:05:50.939Z,105.2
2022-08-18T07:11:44.408Z,113.9
2022-08-18T07:17:48.557Z,110.6
2022-08-18T07:23:39.454Z,115.7
2022-08-18T07:29:29.671Z,103.1
2022-08-18T07:35:20.404Z,88.8
2022-08-18T07:41:10.444Z,92.5
2022-08-18T07:47:01.026Z,92.6
2022-08-18T07:52:56.329Z,96.7
2022-08-18T07:58:46.626Z,109.3
2022-08-18T08:04:41.193Z,112.1
2022-08-18T08:10:34.696Z,112.7
2022-08-18T08:16:27.792Z,112
2022-08-18T08:22:20.735Z,117.1
2022-08-18T08:28:14.052Z,127.4
2022-08-18T08:34:14.003Z,129.9
2022-08-18T08:40:08.302Z,120.9
2022-08-18T08:46:00.076Z,124.4
2022-08-18T08:51:55.566Z,115
2022-08-18T08:57:48.455Z,119.8
2022-08-18T09:03:40.261Z,124.2
2022-08-18T09:09:30.755Z,114
2022-08-18T09:15:19.911Z,104
2022-08-18T09:21:11.006Z,104.8
2022-08-18T09:27:02.883Z,102.9
2022-08-18T09:32:57.009Z,102.7
2022-08-18T09:38:50.199Z,107.1
2022-08-18T09:44:48.639Z,96.7
2022-08-18T10:24:46.569Z,79.7
2022-08-18T10:44:44.632Z,68.2
2022-08-18T10:50:50.851Z,64.3
2022-08-18T11:17:21.964Z,62.1
2022-08-18T11:30:09.270Z,62.5
2022-08-18T11:36:59.656Z,63.4
2022-08-18T11:49:38.378Z,72.5
2022-08-18T13:04:56.119Z,69.2
2022-08-18T13:10:59.919Z,44.6
2022-08-18T13:17:35.842Z,40.1
2022-08-18T13:23:33.273Z,39.6
2022-08-18T13:29:28.518Z,41.5
2022-08-18T13:35:35.428Z,38.5
2022-08-18T13:41:37.871Z,41.2
2022-08-18T13:47:43.393Z,40.2
2022-08-18T13:54:06.597Z,43.7
2022-08-18T14:00:34.311Z,40.2
2022-08-18T14:06:29.826Z,41
2022-08-18T14:12:36.728Z,40
2022-08-18T14:18:35.114Z,38
2022-08-18T14:24:29.755Z,35
2022-08-18T14:30:26.014Z,37.8
2022-08-18T14:36:15.987Z,36
2022-08-18T14:42:17.067Z,36.8
2022-08-18T14:48:14.973Z,39.7
2022-08-18T14:54:06.801Z,40.1
2022-08-18T15:00:14.525Z,37.2
2022-08-18T15:06:22.817Z,36
2022-08-18T15:12:21.657Z,37.3
2022-08-18T15:18:24.469Z,40.9
2022-08-18T15:24:24.975Z,35.8
2022-08-18T15:30:24.488Z,36.7
2022-08-18T15:36:30.869Z,36.7
2022-08-18T15:42:21.604Z,31.8
2022-08-18T15:48:17.391Z,29
2022-08-18T15:54:12.891Z,29.2
2022-08-18T16:00:03.525Z,30.1
2022-08-18T16:05:57.150Z,29
2022-08-18T16:11:47.699Z,28.5
2022-08-18T16:17:37.402Z,26.3
2022-08-18T16:23:26.836Z,22.2
2022-08-18T16:29:16.295Z,22.5
2022-08-18T16:35:05.749Z,21
2022-08-18T16:40:55.727Z,21.3
2022-08-18T16:46:45.123Z,20.7
2022-08-18T16:52:34.668Z,19.3
2022-08-18T16:58:24.154Z,20.8
2022-08-18T17:04:23.762Z,20.8
2022-08-18T17:10:12.694Z,19.1
2022-08-18T17:16:02.402Z,19
2022-08-18T17:21:51.798Z,18.7
2022-08-18T17:27:45.448Z,17.3
2022-08-18T17:33:39.978Z,16.3
2022-08-18T17:39:29.382Z,16.2
2022-08-18T17:45:26.684Z,14.6
2022-08-18T17:51:15.646Z,14.2
2022-08-18T17:57:05.335Z,15.2
2022-08-18T18:02:54.890Z,18.1
2022-08-18T18:08:44.659Z,15.8
2022-08-18T18:14:33.959Z,17.3
2022-08-18T18:20:23.503Z,17.8
2022-08-18T18:26:14.279Z,18.5
2022-08-18T18:32:03.776Z,16.9
2022-08-18T18:37:54.257Z,16.6
2022-08-18T18:43:43.971Z,16.4
2022-08-18T18:49:33.447Z,16.4
2022-08-18T18:55:22.627Z,16.8
2022-08-18T19:01:12.033Z,16.6
2022-08-18T19:07:01.670Z,17
2022-08-18T19:12:50.357Z,17.1
2022-08-18T19:18:39.652Z,16.5
2022-08-18T19:24:33.030Z,18.7
2022-08-18T19:30:23.090Z,15.6
2022-08-18T19:36:29.697Z,17.1
2022-08-18T19:42:22.577Z,15.4
2022-08-18T19:48:19.757Z,17.3
2022-08-18T19:54:10.056Z,16.2
2022-08-18T20:00:08.111Z,16.7
2022-08-18T20:06:32.114Z,18
2022-08-18T20:12:23.798Z,17.1
2022-08-18T20:18:15.212Z,16.4
2022-08-18T20:24:06.949Z,15.9
2022-08-18T20:30:03.114Z,17.9
2022-08-18T20:35:54.755Z,20
2022-08-18T20:41:46.425Z,17.3
2022-08-18T20:47:37.305Z,17.8
2022-08-18T20:53:36.021Z,18.4
2022-08-18T20:59:26.391Z,17.1
2022-08-18T21:05:31.375Z,18.8
2022-08-18T21:12:33.440Z,18.4
2022-08-18T21:18:23.447Z,17.4
2022-08-18T21:24:14.682Z,20.9
2022-08-18T21:30:05.568Z,18.7
2022-08-18T21:35:56.588Z,19
2022-08-18T21:41:50.121Z,18.9
2022-08-18T21:47:40.520Z,19.2
2022-08-18T21:53:32.988Z,17.2
2022-08-18T21:59:23.531Z,17.9
2022-08-18T22:05:14.813Z,19.2
2022-08-18T22:11:07.624Z,16.7
2022-08-18T22:16:58.836Z,17.5
2022-08-18T22:22:50.082Z,17.1
2022-08-18T22:28:41.708Z,17.7
2022-08-18T22:34:33.334Z,16
2022-08-18T22:40:26.877Z,17.6
2022-08-18T22:46:27.889Z,16.9
2022-08-18T22:52:18.132Z,15.2
2022-08-18T22:58:20.253Z,17.5
2022-08-18T23:04:20.690Z,15.2
2022-08-18T23:10:20.763Z,15.3
2022-08-18T23:16:42.156Z,18.5
2022-08-18T23:22:33.766Z,15.1
2022-08-18T23:28:48.398Z,15
2022-08-18T23:47:18.087Z,15.6
2022-08-18T23:53:30.901Z,15.3
2022-08-18T23:59:35.866Z,14
